createdAt,value
2017-06-28T00:00:00.675Z,67.41
2017-06-28T00:02:28.150Z,67.24
2017-06-28T00:04:55.602Z,67.86
2017-06-28T00:07:23.040Z,68.05
2017-06-28T00:09:50.479Z,68.71
2017-06-28T00:12:17.919Z,68.68
2017-06-28T00:14:45.377Z,68.82
2017-06-28T00:17:12.828Z,69.38
2017-06-28T00:19:40.252Z,69.30
2017-06-28T00:22:07.663Z,68.66
2017-06-28T00:24:35.116Z,68.24
2017-06-28T00:27:02.527Z,68.10
2017-06-28T00:29:29.931Z,67.96
2017-06-28T00:31:57.368Z,68.10
2017-06-28T00:34:24.788Z,68.12
2017-06-28T00:36:52.192Z,68.41
2017-06-28T00:39:20.357Z,68.73
2017-06-28T00:41:47.770Z,68.44
2017-06-28T00:44:15.409Z,68.96
2017-06-28T00:46:42.865Z,68.67
2017-06-28T00:49:10.276Z,68.69
2017-06-28T00:51:38.315Z,68.12
2017-06-28T00:54:05.738Z,68.99
2017-06-28T00:56:33.173Z,68.88
2017-06-28T00:59:01.108Z,68.92
2017-06-28T01:01:28.531Z,68.70
2017-06-28T01:03:56.063Z,68.42
2017-06-28T01:06:23.500Z,68.63
2017-06-28T01:08:50.928Z,68.41
2017-06-28T01:11:18.327Z,68.50
2017-06-28T01:13:45.799Z,68.32
2017-06-28T01:16:13.211Z,67.79
2017-06-28T01:18:40.690Z,68.04
2017-06-28T01:21:08.104Z,67.62
2017-06-28T01:23:35.532Z,66.35
2017-06-28T01:26:02.977Z,66.64
2017-06-28T01:28:30.407Z,66.67
2017-06-28T01:30:57.888Z,67.30
2017-06-28T01:33:25.298Z,66.97
2017-06-28T01:35:53.611Z,67.83
2017-06-28T01:38:21.032Z,67.52
2017-06-28T01:40:48.453Z,67.78
2017-06-28T01:43:15.889Z,68.04
2017-06-28T01:45:43.326Z,67.15
2017-06-28T01:48:10.779Z,67.24
2017-06-28T01:50:38.212Z,67.29
2017-06-28T01:53:05.654Z,67.12
2017-06-28T01:55:33.073Z,67.00
2017-06-28T01:58:00.499Z,67.14
2017-06-28T02:00:27.939Z,67.74
2017-06-28T02:02:55.358Z,67.41
2017-06-28T02:05:22.797Z,67.32
2017-06-28T02:07:50.175Z,67.63
2017-06-28T02:10:17.618Z,67.20
2017-06-28T02:12:45.017Z,67.51
2017-06-28T02:15:12.468Z,67.13
2017-06-28T02:17:39.879Z,67.06
2017-06-28T02:20:07.299Z,67.39
2017-06-28T02:22:34.880Z,67.58
2017-06-28T02:25:02.292Z,68.60
2017-06-28T02:27:29.734Z,69.79
2017-06-28T02:29:57.155Z,70.63
2017-06-28T02:32:24.608Z,71.06
2017-06-28T02:34:52.044Z,73.80
2017-06-28T02:37:19.451Z,74.90
2017-06-28T02:39:46.902Z,76.93
2017-06-28T02:42:14.340Z,79.32
2017-06-28T02:44:41.748Z,80.94
2017-06-28T02:47:09.193Z,82.07
2017-06-28T02:49:36.603Z,80.39
2017-06-28T02:52:05.009Z,79.68
2017-06-28T02:54:32.413Z,79.53
2017-06-28T02:56:59.826Z,78.94
2017-06-28T02:59:27.260Z,80.00
2017-06-28T03:01:54.667Z,79.58
2017-06-28T03:04:22.127Z,80.93
2017-06-28T03:06:49.567Z,79.82
2017-06-28T03:09:17.039Z,79.58
2017-06-28T03:11:44.443Z,80.94
2017-06-28T03:14:11.864Z,81.47
2017-06-28T03:16:39.290Z,81.63
2017-06-28T03:19:06.703Z,81.84
2017-06-28T03:21:34.135Z,83.02
2017-06-28T03:24:01.577Z,81.56
2017-06-28T03:26:29.035Z,83.03
2017-06-28T03:28:56.443Z,81.49
2017-06-28T03:31:23.876Z,82.12
2017-06-28T03:33:51.368Z,82.07
2017-06-28T03:36:18.772Z,80.65
2017-06-28T03:38:46.208Z,81.49
2017-06-28T03:41:13.654Z,81.03
2017-06-28T03:43:41.087Z,81.94
2017-06-28T03:46:08.529Z,82.41
2017-06-28T03:48:36.001Z,82.53
2017-06-28T03:51:03.431Z,81.19
2017-06-28T03:53:30.950Z,81.16
2017-06-28T03:55:58.408Z,82.00
2017-06-28T03:58:25.868Z,81.79
2017-06-28T04:00:53.350Z,82.19
2017-06-28T04:03:20.764Z,82.94
2017-06-28T04:05:48.173Z,82.57
2017-06-28T04:08:15.735Z,82.14
2017-06-28T04:10:43.176Z,82.20
2017-06-28T04:13:10.587Z,83.06
2017-06-28T04:15:38.032Z,83.13
2017-06-28T04:18:05.481Z,83.16
2017-06-28T04:20:32.912Z,83.13
2017-06-28T04:23:00.388Z,84.52
2017-06-28T04:25:27.823Z,84.17
2017-06-28T04:27:55.245Z,84.54
2017-06-28T04:30:23.380Z,84.05
2017-06-28T04:32:50.805Z,83.92
2017-06-28T04:35:18.217Z,83.71
2017-06-28T04:37:45.677Z,84.69
2017-06-28T04:40:13.077Z,84.13
2017-06-28T04:42:40.488Z,83.82
2017-06-28T04:45:07.932Z,83.77
2017-06-28T04:47:35.344Z,84.21
2017-06-28T04:50:02.755Z,83.81
2017-06-28T04:52:30.268Z,82.65
2017-06-28T04:54:57.688Z,82.94
2017-06-28T04:57:25.157Z,83.10
2017-06-28T04:59:52.617Z,82.75
2017-06-28T05:02:20.031Z,83.19
2017-06-28T05:04:47.468Z,83.73
2017-06-28T05:07:14.913Z,82.83
2017-06-28T05:09:42.328Z,83.25
2017-06-28T05:12:09.771Z,82.75
2017-06-28T05:14:37.189Z,81.66
2017-06-28T05:17:04.610Z,82.46
2017-06-28T05:19:32.053Z,82.47
2017-06-28T05:21:59.472Z,81.14
2017-06-28T05:24:26.877Z,83.00
2017-06-28T05:26:54.320Z,81.63
2017-06-28T05:29:21.744Z,81.56
2017-06-28T05:31:49.167Z,81.54
2017-06-28T05:34:16.614Z,82.59
2017-06-28T05:36:44.056Z,79.79
2017-06-28T05:39:11.471Z,80.66
2017-06-28T05:41:38.904Z,80.75
2017-06-28T05:44:06.435Z,79.93
2017-06-28T05:46:33.847Z,81.35
2017-06-28T05:49:01.297Z,81.19
2017-06-28T05:51:28.714Z,77.95
2017-06-28T05:53:56.186Z,78.82
2017-06-28T05:56:23.670Z,78.80
2017-06-28T05:58:51.167Z,78.94
2017-06-28T06:01:18.634Z,77.85
2017-06-28T06:03:46.104Z,75.84
2017-06-28T06:06:13.516Z,76.87
2017-06-28T06:08:40.987Z,78.26
2017-06-28T06:11:08.423Z,76.64
2017-06-28T06:13:35.866Z,77.94
2017-06-28T06:16:03.272Z,78.89
2017-06-28T06:18:30.759Z,78.86
2017-06-28T06:20:58.177Z,79.42
2017-06-28T06:23:25.575Z,79.53
2017-06-28T06:25:53.040Z,79.89
2017-06-28T06:28:20.443Z,77.79
2017-06-28T06:30:47.981Z,78.15
2017-06-28T06:33:15.558Z,78.61
2017-06-28T06:35:42.965Z,79.25
2017-06-28T06:38:10.382Z,79.08
2017-06-28T06:40:37.837Z,76.43
2017-06-28T06:43:05.235Z,78.90
2017-06-28T06:45:32.680Z,77.99
2017-06-28T06:48:00.115Z,76.95
2017-06-28T06:50:28.548Z,78.03
2017-06-28T06:52:55.983Z,78.55
2017-06-28T06:55:23.419Z,77.26
2017-06-28T06:57:50.827Z,76.50
2017-06-28T07:00:18.260Z,75.81
2017-06-28T07:02:45.679Z,75.98
2017-06-28T07:05:13.142Z,74.43
2017-06-28T07:07:40.555Z,74.36
2017-06-28T07:10:07.967Z,74.27
2017-06-28T07:12:35.432Z,75.10
2017-06-28T07:15:02.865Z,74.63
2017-06-28T07:17:30.329Z,72.63
2017-06-28T07:19:57.775Z,72.95
2017-06-28T07:22:25.238Z,73.22
2017-06-28T07:24:52.682Z,74.57
2017-06-28T07:27:20.112Z,75.16
2017-06-28T07:29:47.556Z,74.12
2017-06-28T07:32:14.969Z,73.61
2017-06-28T07:34:42.556Z,75.70
2017-06-28T07:37:09.991Z,73.64
2017-06-28T07:39:37.483Z,74.14
2017-06-28T07:42:04.955Z,75.57
2017-06-28T07:44:32.392Z,73.70
2017-06-28T07:46:59.829Z,74.03
2017-06-28T07:49:27.230Z,73.65
2017-06-28T07:51:54.687Z,74.41
2017-06-28T07:54:22.112Z,73.62
2017-06-28T07:56:49.606Z,73.19
2017-06-28T07:59:17.071Z,73.38
2017-06-28T08:01:44.583Z,72.64
2017-06-28T08:04:12.019Z,72.57
2017-06-28T08:06:39.466Z,73.63
2017-06-28T08:09:06.956Z,73.06
2017-06-28T08:11:34.380Z,72.64
2017-06-28T08:14:01.832Z,72.53
2017-06-28T08:16:29.276Z,70.59
2017-06-28T08:18:56.758Z,70.84
2017-06-28T08:21:24.179Z,70.93
2017-06-28T08:23:51.608Z,70.05
2017-06-28T08:26:19.063Z,71.35
2017-06-28T08:28:46.517Z,70.47
2017-06-28T08:31:14.964Z,71.18
2017-06-28T08:33:42.395Z,71.54
2017-06-28T08:36:09.811Z,71.37
2017-06-28T08:38:37.228Z,69.26
2017-06-28T08:41:04.791Z,68.47
2017-06-28T08:43:32.225Z,70.38
2017-06-28T08:45:59.644Z,69.97
2017-06-28T08:48:27.064Z,69.30
2017-06-28T08:50:54.517Z,69.44
2017-06-28T08:53:21.932Z,68.06
2017-06-28T08:55:49.348Z,67.08
2017-06-28T08:58:16.771Z,67.19
2017-06-28T09:00:44.184Z,67.72
2017-06-28T09:03:11.619Z,67.43
2017-06-28T09:05:39.037Z,68.20
2017-06-28T09:08:06.699Z,69.53
2017-06-28T09:10:34.155Z,72.98
2017-06-28T09:13:01.591Z,72.87
2017-06-28T09:15:29.023Z,72.11
2017-06-28T09:17:56.446Z,73.30
2017-06-28T09:20:23.941Z,71.56
2017-06-28T09:22:51.401Z,70.65
2017-06-28T09:25:18.845Z,72.92
2017-06-28T09:27:46.289Z,72.91
2017-06-28T09:30:13.729Z,72.30
2017-06-28T09:32:41.146Z,71.03
2017-06-28T09:35:08.545Z,71.73
2017-06-28T09:37:36.029Z,69.01
2017-06-28T09:40:03.443Z,69.68
2017-06-28T09:42:30.972Z,67.22
2017-06-28T09:44:58.423Z,66.66
2017-06-28T09:47:25.890Z,62.93
2017-06-28T09:49:53.319Z,62.71
2017-06-28T09:52:20.738Z,61.50
2017-06-28T09:54:48.171Z,60.71
2017-06-28T09:57:15.611Z,58.81
2017-06-28T09:59:43.007Z,58.61
2017-06-28T10:02:11.091Z,59.01
2017-06-28T10:04:38.544Z,57.17
2017-06-28T10:07:05.990Z,58.95
2017-06-28T10:09:33.410Z,58.25
2017-06-28T10:12:00.849Z,56.49
2017-06-28T10:14:28.255Z,52.15
2017-06-28T10:16:55.716Z,54.72
2017-06-28T10:19:23.233Z,55.43
2017-06-28T10:21:50.655Z,53.49
2017-06-28T10:24:18.186Z,53.48
2017-06-28T10:26:45.579Z,51.03
2017-06-28T10:29:13.536Z,49.53
2017-06-28T10:31:41.007Z,49.74
2017-06-28T10:34:08.422Z,48.52
2017-06-28T10:36:35.855Z,48.76
2017-06-28T10:39:03.286Z,48.45
2017-06-28T10:41:30.698Z,47.87
2017-06-28T10:43:58.124Z,48.26
2017-06-28T10:46:25.543Z,47.82
2017-06-28T10:48:53.001Z,50.65
2017-06-28T10:51:20.415Z,50.97
2017-06-28T10:53:47.859Z,49.94
2017-06-28T10:56:15.293Z,50.04
2017-06-28T10:58:42.717Z,49.74
2017-06-28T11:01:10.158Z,48.22
2017-06-28T11:03:37.590Z,47.54
2017-06-28T11:06:05.012Z,46.06
2017-06-28T11:08:32.457Z,46.20
2017-06-28T11:10:59.928Z,46.30
2017-06-28T11:13:27.357Z,48.72
2017-06-28T11:15:54.783Z,47.32
2017-06-28T11:18:22.227Z,48.68
2017-06-28T11:20:49.674Z,47.75
2017-06-28T11:23:17.140Z,46.08
2017-06-28T11:25:44.544Z,44.31
2017-06-28T11:28:12.070Z,45.84
2017-06-28T11:30:39.497Z,44.58
2017-06-28T11:33:06.905Z,44.51
2017-06-28T11:35:34.410Z,44.26
2017-06-28T11:38:01.967Z,45.00
2017-06-28T11:40:29.416Z,44.70
2017-06-28T11:42:56.848Z,45.14
2017-06-28T11:45:24.279Z,46.21
2017-06-28T11:47:51.687Z,43.57
2017-06-28T11:50:19.144Z,43.97
2017-06-28T11:52:46.565Z,43.14
2017-06-28T11:55:13.974Z,42.35
2017-06-28T11:57:41.456Z,43.06
2017-06-28T12:00:08.856Z,40.73
2017-06-28T12:02:36.271Z,42.41
2017-06-28T12:05:03.766Z,40.32
2017-06-28T12:07:31.231Z,39.97
2017-06-28T12:09:58.771Z,40.64
2017-06-28T12:12:26.287Z,40.10
2017-06-28T12:14:53.743Z,41.38
2017-06-28T12:17:21.166Z,40.43
2017-06-28T12:19:48.585Z,37.91
2017-06-28T12:22:16.051Z,38.43
2017-06-28T12:24:43.483Z,38.29
2017-06-28T12:27:10.951Z,38.85
2017-06-28T12:29:38.452Z,38.75
2017-06-28T12:32:05.911Z,37.72
2017-06-28T12:34:33.353Z,38.62
2017-06-28T12:37:00.779Z,37.68
2017-06-28T12:39:28.229Z,38.39
2017-06-28T12:41:55.687Z,39.29
2017-06-28T12:44:23.148Z,38.56
2017-06-28T12:46:50.583Z,39.55
2017-06-28T12:49:18.069Z,37.52
2017-06-28T12:51:45.512Z,36.16
2017-06-28T12:54:12.924Z,35.27
2017-06-28T12:56:40.386Z,31.09
2017-06-28T12:59:07.852Z,28.73
2017-06-28T13:01:35.362Z,31.22
2017-06-28T13:04:02.762Z,28.43
2017-06-28T13:06:30.163Z,28.53
2017-06-28T13:08:57.660Z,28.56
2017-06-28T13:11:25.127Z,28.70
2017-06-28T13:13:52.574Z,26.14
2017-06-28T13:16:19.987Z,25.53
2017-06-28T13:18:47.428Z,26.86
2017-06-28T13:21:14.932Z,25.17
2017-06-28T13:23:42.355Z,24.80
2017-06-28T13:26:09.800Z,24.96
2017-06-28T13:28:37.209Z,24.64
2017-06-28T13:31:04.604Z,25.03
2017-06-28T13:33:32.040Z,24.35
2017-06-28T13:35:59.463Z,24.32
2017-06-28T13:38:26.968Z,23.68
2017-06-28T13:40:54.425Z,22.51
2017-06-28T13:43:21.974Z,23.61
2017-06-28T13:45:49.377Z,27.00
2017-06-28T13:48:16.799Z,25.71
2017-06-28T13:50:44.290Z,26.82
2017-06-28T13:53:11.687Z,24.48
2017-06-28T13:55:39.164Z,24.89
2017-06-28T13:58:06.574Z,24.73
2017-06-28T14:00:34.003Z,23.00
2017-06-28T14:03:01.520Z,25.27
2017-06-28T14:05:28.978Z,26.55
2017-06-28T14:07:56.380Z,25.44
2017-06-28T14:10:23.843Z,24.50
2017-06-28T14:12:51.299Z,25.44
2017-06-28T14:15:18.722Z,25.79
2017-06-28T14:17:46.166Z,24.46
2017-06-28T14:20:13.642Z,25.03
2017-06-28T14:22:41.052Z,23.75
2017-06-28T14:25:08.539Z,25.05
2017-06-28T14:27:35.946Z,24.74
2017-06-28T14:30:03.411Z,25.58
2017-06-28T14:32:30.866Z,27.88
2017-06-28T14:34:58.280Z,26.50
2017-06-28T14:37:25.716Z,26.28
2017-06-28T14:39:53.221Z,26.56
2017-06-28T14:42:20.683Z,26.78
2017-06-28T14:44:48.181Z,27.92
2017-06-28T14:47:15.648Z,26.44
2017-06-28T14:49:43.163Z,26.49
2017-06-28T14:52:10.572Z,27.11
2017-06-28T14:54:38.010Z,27.52
2017-06-28T14:57:05.716Z,26.90
2017-06-28T14:59:33.511Z,27.79
2017-06-28T15:02:00.928Z,26.97
2017-06-28T15:04:28.354Z,26.89
2017-06-28T15:06:55.796Z,27.52
2017-06-28T15:09:23.240Z,29.09
2017-06-28T15:11:50.648Z,28.84
2017-06-28T15:14:18.077Z,28.83
2017-06-28T15:16:45.566Z,29.00
2017-06-28T15:19:12.963Z,27.70
2017-06-28T15:21:40.424Z,28.94
2017-06-28T15:24:07.868Z,28.49
2017-06-28T15:26:35.502Z,29.67
2017-06-28T15:29:02.916Z,29.33
2017-06-28T15:31:30.373Z,29.20
2017-06-28T15:33:57.864Z,28.89
2017-06-28T15:36:26.193Z,28.79
2017-06-28T15:38:53.639Z,30.03
2017-06-28T15:41:21.051Z,29.92
2017-06-28T15:43:48.448Z,30.17
2017-06-28T15:46:15.912Z,30.49
2017-06-28T15:48:43.421Z,30.94
2017-06-28T15:51:10.877Z,30.53
2017-06-28T15:53:49.894Z,30.65
2017-06-28T15:56:37.928Z,31.01
2017-06-28T15:59:05.375Z,31.24
2017-06-28T16:01:32.789Z,30.93
2017-06-28T16:04:00.371Z,31.50
2017-06-28T16:06:27.835Z,32.04
2017-06-28T16:08:55.280Z,31.69
2017-06-28T16:11:22.715Z,33.15
2017-06-28T16:13:50.135Z,31.81
2017-06-28T16:16:17.587Z,32.69
2017-06-28T16:18:44.996Z,33.21
2017-06-28T16:21:12.428Z,31.82
2017-06-28T16:23:39.924Z,32.03
2017-06-28T16:26:07.327Z,31.47
2017-06-28T16:28:34.781Z,32.49
2017-06-28T16:31:02.188Z,33.90
2017-06-28T16:33:29.613Z,33.36
2017-06-28T16:35:57.058Z,33.30
2017-06-28T16:38:24.552Z,34.52
2017-06-28T16:40:52.048Z,35.02
2017-06-28T16:43:19.496Z,33.77
2017-06-28T16:45:46.985Z,33.46
2017-06-28T16:48:14.481Z,33.57
2017-06-28T16:50:41.968Z,34.18
2017-06-28T16:53:09.455Z,34.67
2017-06-28T16:55:36.894Z,34.72
2017-06-28T16:58:04.405Z,34.77
2017-06-28T17:00:31.833Z,33.82
2017-06-28T17:02:59.335Z,34.84
2017-06-28T17:05:26.829Z,36.37
2017-06-28T17:07:54.248Z,34.62
2017-06-28T17:10:21.705Z,35.21
2017-06-28T17:12:49.150Z,34.88
2017-06-28T17:15:16.581Z,34.89
2017-06-28T17:17:44.063Z,35.39
2017-06-28T17:20:11.568Z,35.21
2017-06-28T17:22:39.130Z,35.26
2017-06-28T17:25:06.534Z,36.08
2017-06-28T17:27:34.047Z,35.96
2017-06-28T17:30:01.712Z,36.48
2017-06-28T17:32:29.189Z,36.80
2017-06-28T17:34:56.593Z,37.41
2017-06-28T17:37:24.067Z,37.51
2017-06-28T17:39:51.575Z,37.64
2017-06-28T17:42:18.994Z,38.48
2017-06-28T17:44:46.463Z,38.38
2017-06-28T17:47:14.766Z,38.65
2017-06-28T17:49:42.167Z,38.06
2017-06-28T17:52:09.591Z,38.37
2017-06-28T17:54:37.069Z,38.54
2017-06-28T17:57:04.477Z,38.53
2017-06-28T17:59:31.944Z,38.66
2017-06-28T18:01:59.412Z,38.69
2017-06-28T18:04:26.830Z,38.41
2017-06-28T18:06:54.296Z,37.29
2017-06-28T18:09:21.750Z,38.13
2017-06-28T18:11:49.155Z,37.13
2017-06-28T18:14:16.834Z,38.32
2017-06-28T18:16:44.288Z,38.19
2017-06-28T18:19:11.772Z,37.01
2017-06-28T18:21:39.227Z,36.85
2017-06-28T18:24:06.695Z,37.73
2017-06-28T18:26:34.212Z,38.13
2017-06-28T18:29:01.619Z,37.64
2017-06-28T18:31:29.175Z,38.41
2017-06-28T18:33:56.619Z,38.73
2017-06-28T18:36:24.047Z,37.90
2017-06-28T18:38:51.650Z,38.72
2017-06-28T18:41:19.165Z,38.90
2017-06-28T18:43:46.618Z,38.82
2017-06-28T18:46:14.093Z,38.69
2017-06-28T18:48:41.572Z,38.12
2017-06-28T18:51:09.047Z,38.86
2017-06-28T18:53:36.453Z,38.99
2017-06-28T18:56:03.905Z,38.41
2017-06-28T18:58:31.326Z,39.29
2017-06-28T19:00:58.780Z,39.97
2017-06-28T19:03:26.264Z,40.76
2017-06-28T19:05:53.725Z,41.03
2017-06-28T19:08:21.160Z,42.16
2017-06-28T19:10:48.600Z,42.22
2017-06-28T19:13:16.056Z,42.04
2017-06-28T19:15:43.488Z,43.05
2017-06-28T19:18:11.041Z,45.93
2017-06-28T19:20:38.587Z,48.63
2017-06-28T19:23:06.169Z,52.10
2017-06-28T19:25:33.585Z,56.36
2017-06-28T19:28:01.024Z,56.94
2017-06-28T19:30:28.501Z,59.86
2017-06-28T19:32:55.916Z,61.74
2017-06-28T19:35:23.343Z,63.21
2017-06-28T19:37:50.788Z,64.15
2017-06-28T19:40:18.259Z,64.28
2017-06-28T19:42:45.808Z,65.57
2017-06-28T19:45:13.244Z,66.06
2017-06-28T19:47:40.699Z,65.37
2017-06-28T19:50:08.225Z,66.43
2017-06-28T19:52:35.643Z,68.62
2017-06-28T19:55:03.081Z,68.13
2017-06-28T19:57:30.513Z,69.52
2017-06-28T19:59:58.002Z,68.51
2017-06-28T20:02:25.527Z,69.38
2017-06-28T20:04:53.588Z,68.76
2017-06-28T20:07:21.057Z,68.66
2017-06-28T20:09:48.534Z,69.19
2017-06-28T20:12:16.013Z,69.24
2017-06-28T20:14:43.718Z,69.63
2017-06-28T20:17:11.164Z,68.48
2017-06-28T20:19:38.615Z,69.13
2017-06-28T20:22:06.628Z,70.51
2017-06-28T20:24:34.057Z,70.85
2017-06-28T20:27:01.500Z,73.13
2017-06-28T20:29:28.936Z,73.04
2017-06-28T20:31:56.386Z,72.97
2017-06-28T20:34:23.851Z,72.84
2017-06-28T20:36:51.265Z,71.89
2017-06-28T20:39:18.708Z,72.92
2017-06-28T20:41:46.164Z,71.41
2017-06-28T20:44:13.665Z,71.92
2017-06-28T20:46:41.088Z,72.83
2017-06-28T20:49:08.500Z,73.38
2017-06-28T20:51:35.924Z,73.31
2017-06-28T20:54:03.375Z,72.75
2017-06-28T20:56:30.838Z,72.24
2017-06-28T20:58:58.281Z,70.06
2017-06-28T21:01:25.756Z,71.01
2017-06-28T21:03:53.177Z,71.00
2017-06-28T21:06:20.636Z,71.58
2017-06-28T21:08:48.088Z,71.45
2017-06-28T21:11:15.496Z,71.32
2017-06-28T21:13:42.946Z,71.86
2017-06-28T21:16:10.400Z,72.16
2017-06-28T21:18:37.821Z,73.69
2017-06-28T21:21:05.248Z,74.75
2017-06-28T21:23:32.669Z,72.09
2017-06-28T21:26:00.109Z,75.66
2017-06-28T21:28:27.532Z,74.81
2017-06-28T21:30:54.990Z,73.15
2017-06-28T21:33:22.407Z,74.56
2017-06-28T21:35:49.860Z,72.15
2017-06-28T21:38:17.295Z,74.57
2017-06-28T21:40:44.747Z,70.61
2017-06-28T21:43:12.212Z,71.69
2017-06-28T21:45:39.662Z,72.56
2017-06-28T21:48:07.070Z,72.26
2017-06-28T21:50:34.717Z,72.29
2017-06-28T21:53:02.309Z,72.96
2017-06-28T21:55:29.731Z,70.75
2017-06-28T21:57:57.123Z,73.13
2017-06-28T22:00:24.597Z,72.95
2017-06-28T22:02:52.083Z,74.39
2017-06-28T22:05:19.610Z,77.07
2017-06-28T22:07:47.175Z,79.75
2017-06-28T22:10:14.868Z,81.12
2017-06-28T22:12:42.280Z,82.86
2017-06-28T22:15:09.690Z,84.47
2017-06-28T22:17:38.072Z,84.04
2017-06-28T22:20:05.480Z,84.73
2017-06-28T22:22:32.891Z,83.40
2017-06-28T22:25:00.357Z,81.10
2017-06-28T22:27:27.770Z,83.40
2017-06-28T22:29:55.187Z,83.32
2017-06-28T22:32:22.695Z,82.07
2017-06-28T22:34:50.123Z,83.58
2017-06-28T22:37:17.561Z,82.87
2017-06-28T22:39:44.992Z,84.07
2017-06-28T22:42:12.384Z,81.71
2017-06-28T22:44:39.835Z,81.48
2017-06-28T22:47:07.267Z,82.90
2017-06-28T22:49:34.699Z,82.35
2017-06-28T22:52:02.131Z,82.53
2017-06-28T22:54:29.583Z,83.40
2017-06-28T22:56:57.021Z,83.32
2017-06-28T22:59:24.434Z,83.39
2017-06-28T23:01:51.875Z,82.81
2017-06-28T23:04:19.341Z,83.12
2017-06-28T23:06:46.920Z,83.70
2017-06-28T23:09:14.351Z,83.85
2017-06-28T23:11:41.821Z,83.53
2017-06-28T23:14:09.271Z,85.76
2017-06-28T23:16:36.687Z,83.77
2017-06-28T23:19:04.132Z,84.65
2017-06-28T23:21:31.563Z,83.77
2017-06-28T23:23:58.992Z,84.12
2017-06-28T23:26:26.425Z,83.69
2017-06-28T23:28:53.846Z,83.98
2017-06-28T23:31:21.300Z,83.79
2017-06-28T23:33:48.735Z,83.99
2017-06-28T23:36:16.156Z,83.79
2017-06-28T23:38:43.592Z,84.99
2017-06-28T23:41:11.043Z,83.87
2017-06-28T23:43:38.475Z,83.67
2017-06-28T23:46:05.891Z,83.69
2017-06-28T23:48:37.188Z,84.65
2017-06-28T23:51:04.627Z,83.40
2017-06-28T23:53:32.074Z,83.83
2017-06-28T23:55:59.544Z,84.57
2017-06-28T23:58:27.008Z,84.54
